Time;durP1;ratioP1;P1;durP2;ratioP2;P2;SDS_P1;SDS_P2;PMS_P1;PMS_P2;Temp;Humidity;BMP_temperature;BMP_pressure;BME280_temperature;BME280_humidity;BME280_pressure;Samples;Min_cycle;Max_cycle;Signal;HPM_P1;HPM_P2
2021/07/08 00:01:25;;;;;;;7.20;6.70;;;14.60;99.90;;;;;;5030396;28;20033;-63
2021/07/08 00:03:50;;;;;;;7.43;6.82;;;14.60;99.90;;;;;;5030518;28;20450;-62
2021/07/08 00:06:16;;;;;;;6.95;6.45;;;14.60;99.90;;;;;;5029538;28;20077;-63
2021/07/08 00:08:42;;;;;;;7.40;6.80;;;14.50;99.90;;;;;;5029039;28;20088;-62
2021/07/08 00:11:07;;;;;;;7.70;7.00;;;14.50;99.90;;;;;;5030162;28;20152;-62
2021/07/08 00:13:33;;;;;;;7.53;6.78;;;14.50;99.90;;;;;;5030814;28;20044;-63
2021/07/08 00:15:59;;;;;;;7.97;7.28;;;14.60;99.90;;;;;;5030400;28;20406;-63
2021/07/08 00:18:27;;;;;;;7.15;6.57;;;14.50;99.90;;;;;;5030232;28;20038;-63
2021/07/08 00:20:53;;;;;;;7.47;6.75;;;14.50;99.90;;;;;;5026490;28;20037;-63
2021/07/08 00:23:20;;;;;;;6.63;6.13;;;14.50;99.90;;;;;;5035800;28;20042;-62
2021/07/08 00:25:49;;;;;;;6.97;6.47;;;14.50;99.90;;;;;;5027141;28;20056;-62
2021/07/08 00:28:15;;;;;;;7.30;6.60;;;14.40;99.90;;;;;;5033617;28;20071;-62
2021/07/08 00:30:43;;;;;;;7.25;6.65;;;14.40;99.90;;;;;;5033226;28;20033;-62
2021/07/08 00:33:10;;;;;;;6.88;6.18;;;14.30;99.90;;;;;;5019350;28;20095;-62
2021/07/08 00:35:37;;;;;;;7.57;6.97;;;14.30;99.90;;;;;;5033398;28;20042;-63
2021/07/08 00:38:03;;;;;;;6.60;6.03;;;14.30;99.90;;;;;;5033840;28;20455;-62
2021/07/08 00:40:30;;;;;;;6.85;6.30;;;14.30;99.90;;;;;;5033026;28;20064;-63
2021/07/08 00:42:57;;;;;;;7.63;6.93;;;14.20;99.90;;;;;;5032240;28;20479;-63
2021/07/08 00:45:24;;;;;;;7.75;7.05;;;14.20;99.90;;;;;;5033531;28;20047;-62
2021/07/08 00:47:50;;;;;;;8.68;7.97;;;14.20;99.90;;;;;;5033122;28;20048;-62
2021/07/08 00:50:20;;;;;;;7.45;6.85;;;14.20;99.90;;;;;;5032908;28;20120;-63
2021/07/08 00:52:45;;;;;;;8.13;7.40;;;14.20;99.90;;;;;;5029553;28;20340;-63
2021/07/08 00:55:11;;;;;;;7.32;6.72;;;14.20;99.90;;;;;;5032847;28;20044;-63
2021/07/08 00:57:54;;;;;;;7.30;6.80;;;14.20;99.90;;;;;;5039136;28;20069;-62
2021/07/08 01:00:23;;;;;;;6.78;6.18;;;14.10;99.90;;;;;;5013361;28;20046;-62
2021/07/08 01:02:50;;;;;;;6.72;6.22;;;14.10;99.90;;;;;;5033109;28;20519;-63
2021/07/08 01:05:18;;;;;;;7.13;6.43;;;14.00;99.90;;;;;;5032455;28;20639;-63
2021/07/08 01:07:44;;;;;;;6.70;6.18;;;14.00;99.90;;;;;;5047684;28;20041;-63
2021/07/08 01:10:10;;;;;;;7.50;6.80;;;14.00;99.90;;;;;;5032456;28;20041;-62
2021/07/08 01:12:36;;;;;;;7.28;6.57;;;13.90;99.90;;;;;;5032861;28;20041;-62
2021/07/08 01:15:03;;;;;;;7.25;6.65;;;13.90;99.90;;;;;;5032741;28;20033;-62
2021/07/08 01:17:29;;;;;;;7.75;7.03;;;13.90;99.90;;;;;;5032095;28;20048;-63
2021/07/08 01:19:55;;;;;;;7.95;7.35;;;13.90;99.90;;;;;;5032471;28;20571;-62
2021/07/08 01:22:21;;;;;;;8.02;7.22;;;13.90;99.90;;;;;;5016744;28;20149;-62
2021/07/08 01:24:47;;;;;;;8.30;7.57;;;13.90;99.90;;;;;;5029235;28;20041;-62
2021/07/08 01:27:14;;;;;;;8.00;7.20;;;13.90;99.90;;;;;;5031409;28;20034;-63
2021/07/08 01:29:40;;;;;;;7.93;7.32;;;13.90;99.90;;;;;;5029221;28;20671;-63
2021/07/08 01:32:06;;;;;;;7.88;7.13;;;13.90;99.90;;;;;;5029886;28;20034;-63
2021/07/08 01:34:32;;;;;;;7.20;6.70;;;13.90;99.90;;;;;;5025021;28;20448;-62
2021/07/08 01:36:57;;;;;;;8.05;7.35;;;13.90;99.90;;;;;;5032344;28;20071;-63
2021/07/08 01:39:23;;;;;;;8.82;8.13;;;13.90;99.90;;;;;;5032400;28;20049;-63
2021/07/08 01:41:49;;;;;;;9.30;8.40;;;13.90;99.90;;;;;;5032219;28;20131;-63
2021/07/08 01:44:15;;;;;;;9.07;8.20;;;13.80;99.90;;;;;;5032014;28;20056;-63
2021/07/08 01:46:41;;;;;;;9.32;8.63;;;13.80;99.90;;;;;;5031572;28;20041;-63
2021/07/08 01:49:07;;;;;;;8.93;8.23;;;13.80;99.90;;;;;;5030237;28;20056;-63
2021/07/08 01:51:34;;;;;;;9.40;8.60;;;13.70;99.90;;;;;;5031426;28;20583;-63
2021/07/08 01:54:01;;;;;;;9.43;8.52;;;13.70;99.90;;;;;;5030820;28;20520;-63
2021/07/08 01:56:27;;;;;;;9.63;8.73;;;13.70;99.90;;;;;;5034493;28;20049;-63
2021/07/08 01:58:54;;;;;;;8.82;8.13;;;13.70;99.90;;;;;;5025496;28;20112;-63
2021/07/08 02:01:23;;;;;;;8.68;7.88;;;13.70;99.90;;;;;;5022238;28;20076;-62
2021/07/08 02:03:49;;;;;;;8.30;7.60;;;13.60;99.90;;;;;;5031647;28;20531;-62
2021/07/08 02:06:15;;;;;;;8.10;7.40;;;13.50;99.90;;;;;;5031478;28;20045;-62
2021/07/08 02:08:42;;;;;;;8.55;7.85;;;13.50;99.90;;;;;;5031105;28;20042;-62
2021/07/08 02:11:09;;;;;;;8.88;7.97;;;13.50;99.90;;;;;;5030029;28;20040;-63
2021/07/08 02:13:38;;;;;;;8.65;7.85;;;13.40;99.90;;;;;;5031412;28;20033;-62
2021/07/08 02:16:05;;;;;;;8.60;7.90;;;13.40;99.90;;;;;;5031649;28;20046;-63
2021/07/08 02:18:32;;;;;;;9.05;8.18;;;13.40;99.90;;;;;;5031423;28;20667;-62
2021/07/08 02:20:58;;;;;;;9.13;8.43;;;13.40;99.90;;;;;;5026589;28;20100;-63
2021/07/08 02:23:24;;;;;;;8.07;7.47;;;13.40;99.90;;;;;;5016575;28;20041;-62
2021/07/08 02:25:49;;;;;;;8.20;7.50;;;13.40;99.90;;;;;;5031842;28;20041;-62
2021/07/08 02:28:15;;;;;;;8.32;7.57;;;13.40;99.90;;;;;;5026174;28;20030;-62
2021/07/08 02:30:41;;;;;;;8.82;8.10;;;13.40;99.90;;;;;;5031411;28;20030;-62
2021/07/08 02:33:08;;;;;;;8.88;8.07;;;13.40;99.90;;;;;;5030929;28;20379;-62
2021/07/08 02:35:35;;;;;;;9.07;8.38;;;13.30;99.90;;;;;;5031286;28;20533;-63
2021/07/08 02:38:01;;;;;;;8.00;7.40;;;13.30;99.90;;;;;;5031023;28;20042;-62
2021/07/08 02:40:40;;;;;;;10.20;7.47;;;13.30;99.90;;;;;;5031430;28;20103;-63
2021/07/08 02:43:07;;;;;;;8.68;7.97;;;13.30;99.90;;;;;;5028160;28;20038;-62
2021/07/08 02:45:34;;;;;;;9.00;8.25;;;13.30;99.90;;;;;;5028094;28;20101;-63
2021/07/08 02:48:03;;;;;;;8.77;7.97;;;13.30;99.90;;;;;;5035577;28;20041;-62
2021/07/08 02:50:30;;;;;;;8.50;7.90;;;13.30;99.90;;;;;;5030655;28;20037;-62
2021/07/08 02:52:56;;;;;;;8.45;7.60;;;13.30;99.90;;;;;;5030759;28;20091;-62
2021/07/08 02:55:22;;;;;;;8.18;7.47;;;13.20;99.90;;;;;;5030806;28;20029;-63
2021/07/08 02:57:48;;;;;;;8.18;7.47;;;13.10;99.90;;;;;;5033265;28;20041;-62
2021/07/08 03:00:19;;;;;;;8.15;7.45;;;13.10;99.90;;;;;;5030186;28;20564;-63
2021/07/08 03:02:45;;;;;;;8.70;7.05;;;13.10;99.90;;;;;;5031047;28;20037;-63
2021/07/08 03:05:12;;;;;;;7.70;7.10;;;13.00;99.90;;;;;;5030164;28;20045;-63
2021/07/08 03:07:38;;;;;;;7.20;6.53;;;13.10;99.90;;;;;;5030804;28;20044;-62
2021/07/08 03:10:06;;;;;;;7.38;6.78;;;13.00;99.90;;;;;;5030919;28;20069;-62
2021/07/08 03:12:32;;;;;;;7.72;6.93;;;13.10;99.90;;;;;;5031032;28;20057;-62
2021/07/08 03:14:57;;;;;;;7.70;7.00;;;13.10;99.90;;;;;;5030995;28;20045;-63
2021/07/08 03:17:23;;;;;;;7.97;7.38;;;13.00;99.90;;;;;;5030714;28;20091;-62
2021/07/08 03:19:48;;;;;;;7.40;6.70;;;13.10;99.90;;;;;;5030700;28;20733;-62
2021/07/08 03:22:15;;;;;;;6.90;6.30;;;13.00;99.90;;;;;;5025275;28;20159;-62
2021/07/08 03:24:40;;;;;;;7.13;6.43;;;12.90;99.90;;;;;;5011892;28;20099;-62
2021/07/08 03:27:07;;;;;;;6.93;6.32;;;12.80;99.90;;;;;;5030958;28;20471;-62
2021/07/08 03:29:32;;;;;;;7.85;7.15;;;12.90;99.90;;;;;;5030415;28;20056;-62
2021/07/08 03:31:58;;;;;;;7.97;7.32;;;12.90;99.90;;;;;;5030257;28;20116;-62
2021/07/08 03:34:24;;;;;;;7.80;7.10;;;12.90;99.90;;;;;;5029291;28;20041;-62
2021/07/08 03:36:50;;;;;;;8.68;7.75;;;12.90;99.90;;;;;;5015259;28;20500;-62
2021/07/08 03:39:15;;;;;;;8.45;7.85;;;12.90;99.90;;;;;;5022839;28;20455;-62
2021/07/08 03:41:41;;;;;;;10.07;9.07;;;12.90;99.90;;;;;;5029572;28;20076;-62
2021/07/08 03:44:06;;;;;;;10.20;9.30;;;13.00;99.90;;;;;;5019297;28;20050;-63
2021/07/08 03:46:32;;;;;;;8.43;7.72;;;13.00;99.90;;;;;;5030776;28;20593;-63
2021/07/08 03:48:58;;;;;;;9.25;8.45;;;12.90;99.90;;;;;;5031009;28;20119;-62
2021/07/08 03:51:24;;;;;;;8.65;7.95;;;12.90;99.90;;;;;;5034630;28;20548;-63
2021/07/08 03:53:49;;;;;;;8.52;7.80;;;12.90;99.90;;;;;;5046578;28;20048;-62
2021/07/08 03:56:15;;;;;;;8.43;7.65;;;13.00;99.90;;;;;;5037168;28;20046;-62
2021/07/08 03:58:41;;;;;;;7.93;7.22;;;13.00;99.90;;;;;;5028406;28;20547;-63
2021/07/08 04:01:08;;;;;;;8.65;7.85;;;13.00;99.90;;;;;;5034331;28;20038;-62
2021/07/08 04:03:34;;;;;;;8.35;7.55;;;13.10;99.90;;;;;;5034183;28;20049;-62
2021/07/08 04:05:59;;;;;;;9.25;7.32;;;13.10;99.90;;;;;;5034070;28;20041;-63
2021/07/08 04:08:25;;;;;;;8.63;7.90;;;13.20;99.90;;;;;;5034003;28;20041;-63
2021/07/08 04:10:55;;;;;;;8.60;7.85;;;13.20;99.90;;;;;;5034251;28;20124;-62
2021/07/08 04:13:21;;;;;;;8.13;7.32;;;13.20;99.90;;;;;;5034164;28;20683;-62
2021/07/08 04:15:49;;;;;;;9.88;6.82;;;13.20;99.90;;;;;;5032692;28;20040;-62
2021/07/08 04:18:16;;;;;;;8.13;7.40;;;13.20;99.90;;;;;;5034141;28;20045;-62
2021/07/08 04:21:02;;;;;;;7.65;6.95;;;13.20;99.90;;;;;;5018290;28;20495;-62
2021/07/08 04:23:29;;;;;;;7.65;6.95;;;13.30;99.90;;;;;;5033842;28;20045;-63
2021/07/08 04:25:55;;;;;;;10.05;7.90;;;13.30;99.90;;;;;;5032934;28;20049;-63
2021/07/08 04:28:22;;;;;;;8.20;7.45;;;13.30;99.90;;;;;;5032590;28;20380;-62
2021/07/08 04:30:47;;;;;;;8.10;7.40;;;13.40;99.90;;;;;;5033727;28;20044;-63
2021/07/08 04:33:14;;;;;;;8.15;7.45;;;13.40;99.90;;;;;;5032596;28;20050;-63
2021/07/08 04:35:40;;;;;;;8.25;7.55;;;13.40;99.90;;;;;;5027699;28;20069;-63
2021/07/08 04:38:08;;;;;;;8.15;7.35;;;13.40;99.90;;;;;;5014154;28;20074;-63
2021/07/08 04:40:53;;;;;;;7.45;6.85;;;13.40;99.90;;;;;;5012731;28;20120;-63
2021/07/08 04:43:19;;;;;;;7.10;6.40;;;13.40;99.90;;;;;;5014499;28;20037;-63
2021/07/08 04:45:45;;;;;;;7.75;7.15;;;13.50;99.90;;;;;;5033645;28;20411;-63
2021/07/08 04:48:13;;;;;;;9.10;8.20;;;13.60;99.90;;;;;;5032306;28;20112;-63
2021/07/08 04:50:41;;;;;;;9.35;8.55;;;13.70;99.90;;;;;;5032866;28;20422;-63
2021/07/08 04:53:06;;;;;;;8.80;8.00;;;13.70;99.90;;;;;;5032244;28;20034;-63
2021/07/08 04:55:32;;;;;;;8.65;7.95;;;13.70;99.90;;;;;;5033192;28;20037;-63
2021/07/08 04:57:58;;;;;;;8.60;7.80;;;13.90;99.90;;;;;;5050139;28;20138;-63
2021/07/08 05:00:24;;;;;;;10.57;9.50;;;14.00;99.90;;;;;;5036581;28;20072;-63
2021/07/08 05:02:53;;;;;;;10.20;9.25;;;14.00;99.90;;;;;;5032137;28;20061;-63
2021/07/08 05:05:19;;;;;;;8.30;7.68;;;14.10;99.90;;;;;;5033103;28;20094;-63
2021/07/08 05:07:45;;;;;;;8.48;7.78;;;14.20;99.90;;;;;;5033050;28;20044;-63
2021/07/08 05:10:13;;;;;;;8.73;8.00;;;14.30;99.90;;;;;;5032941;28;20037;-63
2021/07/08 05:12:42;;;;;;;8.70;8.00;;;14.40;99.90;;;;;;5031690;28;20160;-63
2021/07/08 05:15:10;;;;;;;8.73;7.97;;;14.50;99.90;;;;;;5032878;28;20484;-63
2021/07/08 05:17:36;;;;;;;9.90;8.90;;;14.60;99.90;;;;;;5031629;28;20045;-63
2021/07/08 05:20:04;;;;;;;11.15;10.02;;;14.70;99.90;;;;;;5031065;28;20473;-63
2021/07/08 05:22:34;;;;;;;10.85;9.95;;;14.90;99.90;;;;;;5032578;28;20033;-63
2021/07/08 05:25:01;;;;;;;13.60;10.95;;;15.00;99.90;;;;;;5031568;28;20465;-63
2021/07/08 05:27:26;;;;;;;11.45;10.05;;;15.10;99.90;;;;;;5032494;28;20095;-63
2021/07/08 05:29:52;;;;;;;42.30;18.45;;;15.20;99.90;;;;;;5032230;28;20037;-63
2021/07/08 05:32:18;;;;;;;16.55;14.85;;;15.40;99.90;;;;;;5032439;28;20041;-63
2021/07/08 05:34:44;;;;;;;17.15;15.57;;;15.50;99.90;;;;;;5030700;28;20040;-63
2021/07/08 05:37:10;;;;;;;15.15;13.88;;;15.60;99.90;;;;;;5032051;28;20049;-63
2021/07/08 05:39:37;;;;;;;16.23;14.10;;;15.80;99.90;;;;;;5032399;28;20677;-63
2021/07/08 05:42:03;;;;;;;14.93;13.65;;;15.90;99.90;;;;;;5032076;28;20108;-63
2021/07/08 05:44:30;;;;;;;15.57;14.15;;;16.00;99.90;;;;;;5028398;28;20049;-63
2021/07/08 05:46:56;;;;;;;16.13;14.63;;;16.20;99.90;;;;;;5025047;28;20045;-63
2021/07/08 05:49:22;;;;;;;15.88;14.23;;;16.30;99.90;;;;;;5019130;28;20121;-63
2021/07/08 05:51:47;;;;;;;17.05;15.20;;;16.50;99.90;;;;;;5000138;28;20113;-63
2021/07/08 05:54:13;;;;;;;14.50;13.20;;;16.80;99.90;;;;;;5012492;28;20065;-63
2021/07/08 05:56:38;;;;;;;15.20;13.70;;;18.10;99.90;;;;;;5035326;28;20128;-63
2021/07/08 05:59:04;;;;;;;13.35;12.05;;;19.80;99.90;;;;;;5052045;28;20033;-63
2021/07/08 06:01:30;;;;;;;12.85;11.63;;;21.40;99.90;;;;;;5035832;28;20368;-63
2021/07/08 06:03:55;;;;;;;11.77;10.68;;;22.80;99.90;;;;;;5030882;28;20048;-63
2021/07/08 06:06:21;;;;;;;11.18;10.25;;;23.80;99.90;;;;;;5030509;28;20044;-63
2021/07/08 06:08:47;;;;;;;9.30;8.40;;;24.70;99.90;;;;;;5032239;28;20054;-63
2021/07/08 06:11:13;;;;;;;9.98;9.02;;;25.60;97.60;;;;;;5024824;28;20540;-63
2021/07/08 06:13:39;;;;;;;9.93;9.02;;;26.20;96.20;;;;;;5023786;28;20042;-63
2021/07/08 06:16:05;;;;;;;9.02;8.15;;;27.00;95.10;;;;;;5031653;28;20056;-63
2021/07/08 06:18:31;;;;;;;9.45;8.55;;;27.70;93.60;;;;;;5031839;28;20045;-63
2021/07/08 06:20:57;;;;;;;9.23;8.43;;;28.30;92.40;;;;;;5026440;28;20045;-64
2021/07/08 06:23:23;;;;;;;8.90;8.05;;;28.60;85.50;;;;;;5031532;28;20029;-64
2021/07/08 06:25:50;;;;;;;8.52;7.78;;;28.90;90.50;;;;;;5030118;28;20053;-64
2021/07/08 06:28:17;;;;;;;7.93;7.22;;;29.30;88.80;;;;;;5022873;28;20026;-64
2021/07/08 06:30:43;;;;;;;8.80;7.22;;;29.40;88.50;;;;;;5018506;28;20400;-64
2021/07/08 06:33:09;;;;;;;8.18;7.43;;;30.10;87.50;;;;;;5031234;28;20132;-64
2021/07/08 06:35:35;;;;;;;8.18;7.47;;;30.30;81.10;;;;;;5030283;28;20145;-64
2021/07/08 06:38:01;;;;;;;10.32;7.10;;;31.00;83.00;;;;;;5031386;28;20689;-64
2021/07/08 06:40:27;;;;;;;7.65;6.43;;;30.80;80.60;;;;;;5030199;28;20053;-64
2021/07/08 06:42:53;;;;;;;7.05;6.35;;;30.80;79.90;;;;;;5031056;28;20049;-64
2021/07/08 06:45:19;;;;;;;6.53;5.57;;;31.20;80.00;;;;;;5031365;28;20047;-64
2021/07/08 06:47:49;;;;;;;6.60;6.10;;;32.00;78.40;;;;;;5029675;28;20120;-64
2021/07/08 06:50:16;;;;;;;7.18;5.32;;;32.50;74.50;;;;;;5031204;28;20041;-64
2021/07/08 06:52:43;;;;;;;6.78;4.95;;;33.10;72.90;;;;;;5030921;28;20029;-64
2021/07/08 06:55:09;;;;;;;7.90;5.13;;;33.50;70.00;;;;;;5048461;22;20079;-68
2021/07/08 06:57:35;;;;;;;6.53;5.40;;;33.60;70.10;;;;;;5070613;28;20071;-68
2021/07/08 07:00:00;;;;;;;7.13;4.97;;;33.50;69.70;;;;;;5056473;28;20064;-68
2021/07/08 07:02:26;;;;;;;6.43;5.30;;;33.50;64.80;;;;;;5069148;28;20056;-68
2021/07/08 07:04:52;;;;;;;5.47;4.53;;;33.80;65.80;;;;;;5070677;28;20036;-68
2021/07/08 07:07:18;;;;;;;7.07;4.82;;;34.00;66.50;;;;;;5057992;28;20848;-67
2021/07/08 07:09:44;;;;;;;5.72;4.60;;;34.20;63.40;;;;;;5071240;28;20040;-67
2021/07/08 07:12:10;;;;;;;5.68;3.92;;;34.30;64.10;;;;;;5070678;28;20047;-68
2021/07/08 07:14:36;;;;;;;5.22;4.40;;;34.40;61.60;;;;;;5071051;28;20049;-68
2021/07/08 07:17:02;;;;;;;5.25;4.65;;;34.40;59.80;;;;;;5060818;28;20036;-68
2021/07/08 07:19:27;;;;;;;6.72;4.40;;;34.00;57.20;;;;;;5056123;28;20037;-68
2021/07/08 07:21:54;;;;;;;5.78;4.47;;;34.00;59.20;;;;;;5070350;28;20055;-68
2021/07/08 07:24:21;;;;;;;6.05;4.80;;;33.60;58.90;;;;;;5070243;28;20045;-68
2021/07/08 07:26:48;;;;;;;6.10;5.50;;;33.50;57.30;;;;;;5074612;28;20456;-67
2021/07/08 07:29:14;;;;;;;6.30;5.43;;;32.70;59.60;;;;;;5074520;28;20067;-67
2021/07/08 07:31:40;;;;;;;6.68;5.55;;;31.50;60.60;;;;;;5074280;28;20071;-67
2021/07/08 07:34:07;;;;;;;5.30;4.80;;;30.70;65.10;;;;;;5072247;28;20047;-67
2021/07/08 07:36:33;;;;;;;6.70;5.35;;;30.90;64.90;;;;;;5072531;28;20048;-66
2021/07/08 07:38:58;;;;;;;7.75;6.68;;;31.40;63.70;;;;;;5068687;28;20033;-66
2021/07/08 07:41:24;;;;;;;7.53;6.82;;;31.50;63.10;;;;;;5071218;28;20041;-66
2021/07/08 07:43:50;;;;;;;6.50;5.90;;;31.90;62.20;;;;;;5068528;28;20101;-66
2021/07/08 07:46:15;;;;;;;7.40;6.90;;;31.90;63.30;;;;;;5072912;28;20028;-66
2021/07/08 07:48:41;;;;;;;8.10;7.28;;;31.50;61.70;;;;;;5071021;28;20090;-66
2021/07/08 07:51:07;;;;;;;6.95;6.22;;;31.90;62.70;;;;;;5057871;28;20075;-66
2021/07/08 07:53:32;;;;;;;7.60;6.57;;;32.10;62.40;;;;;;5054096;28;20068;-66
2021/07/08 07:55:58;;;;;;;7.28;6.57;;;32.30;60.50;;;;;;5063053;28;20055;-66
2021/07/08 07:58:26;;;;;;;7.05;6.40;;;32.30;59.50;;;;;;5073911;28;20569;-66
2021/07/08 08:00:55;;;;;;;7.55;6.50;;;32.40;59.00;;;;;;5074431;28;20044;-66
2021/07/08 08:03:20;;;;;;;8.85;7.93;;;32.40;58.30;;;;;;5056310;28;20072;-66
2021/07/08 08:05:57;;;;;;;7.95;7.15;;;30.70;60.90;;;;;;5072960;28;20464;-66
2021/07/08 08:08:30;;;;;;;6.90;6.20;;;31.00;60.80;;;;;;5074057;28;20116;-66
2021/07/08 08:10:57;;;;;;;8.35;6.55;;;31.40;60.90;;;;;;5074195;28;20041;-66
2021/07/08 08:13:23;;;;;;;8.15;5.50;;;31.20;61.30;;;;;;5073795;28;20155;-66
2021/07/08 08:15:51;;;;;;;7.05;5.50;;;31.10;61.00;;;;;;5072860;28;20518;-66
2021/07/08 08:18:17;;;;;;;6.60;5.00;;;30.60;59.40;;;;;;5073907;28;20048;-66
2021/07/08 08:20:43;;;;;;;4.80;4.40;;;30.10;61.50;;;;;;5073927;28;20059;-66
2021/07/08 08:23:08;;;;;;;5.85;5.28;;;29.20;63.70;;;;;;5072349;28;20488;-66
2021/07/08 08:25:35;;;;;;;6.53;5.28;;;28.10;65.50;;;;;;5073955;28;20046;-66
2021/07/08 08:28:01;;;;;;;8.00;6.00;;;28.00;66.90;;;;;;5061552;28;20041;-66
2021/07/08 08:30:27;;;;;;;8.85;5.68;;;27.50;68.60;;;;;;5073757;28;20029;-66
2021/07/08 08:32:53;;;;;;;7.30;5.70;;;26.90;71.20;;;;;;5073856;28;20123;-66
2021/07/08 08:35:19;;;;;;;6.90;5.43;;;26.80;72.40;;;;;;5073480;28;20115;-66
2021/07/08 08:37:45;;;;;;;5.88;5.10;;;26.70;73.10;;;;;;5073791;28;20068;-66
2021/07/08 08:40:12;;;;;;;4.82;4.20;;;26.40;76.00;;;;;;5073496;28;20036;-66
2021/07/08 08:42:38;;;;;;;7.78;4.90;;;26.30;78.20;;;;;;5073674;28;20068;-66
2021/07/08 08:45:07;;;;;;;5.53;4.25;;;26.20;79.40;;;;;;5068479;28;20076;-66
2021/07/08 08:47:33;;;;;;;5.93;4.55;;;26.10;77.30;;;;;;5056421;28;20059;-66
2021/07/08 08:50:00;;;;;;;7.57;5.28;;;26.00;77.90;;;;;;5073742;28;20464;-66
2021/07/08 08:52:27;;;;;;;5.05;4.35;;;25.60;80.40;;;;;;5093380;28;20081;-66
2021/07/08 08:54:53;;;;;;;4.38;3.50;;;25.10;85.10;;;;;;5093061;28;20048;-66
2021/07/08 08:57:19;;;;;;;6.88;4.80;;;25.20;82.00;;;;;;5081935;28;20111;-66
2021/07/08 08:59:44;;;;;;;7.68;5.18;;;25.00;82.40;;;;;;5073098;28;20044;-66
2021/07/08 09:02:14;;;;;;;7.90;5.45;;;25.10;84.10;;;;;;5072180;28;20048;-66
2021/07/08 09:04:41;;;;;;;6.68;4.70;;;25.10;84.30;;;;;;5071739;28;20049;-66
2021/07/08 09:07:25;;;;;;;8.32;5.07;;;24.60;88.30;;;;;;5054198;28;20124;-66
2021/07/08 09:09:56;;;;;;;5.80;4.32;;;24.70;86.30;;;;;;5053061;28;20078;-66
2021/07/08 09:12:23;;;;;;;6.05;4.45;;;24.90;85.10;;;;;;5053008;28;20044;-66
2021/07/08 09:14:51;;;;;;;7.07;4.07;;;25.20;83.80;;;;;;5052705;28;20800;-66
2021/07/08 09:17:22;;;;;;;7.03;4.97;;;25.30;82.70;;;;;;5052881;28;20032;-66
2021/07/08 09:20:05;;;;;;;;;;;25.40;82.70;;;;;;5053257;28;20033;-66
2021/07/08 09:22:30;;;;;;;6.47;3.85;;;25.20;82.90;;;;;;5064037;28;19967;-66
2021/07/08 09:24:56;;;;;;;4.90;3.83;;;25.30;84.20;;;;;;5052847;28;20064;-66
2021/07/08 09:27:27;;;;;;;7.10;3.80;;;25.40;83.00;;;;;;5065499;28;20053;-67
2021/07/08 09:29:54;;;;;;;4.82;3.53;;;25.60;82.50;;;;;;5072693;28;20052;-66
2021/07/08 09:32:23;;;;;;;6.05;3.67;;;25.80;81.40;;;;;;5072571;28;20043;-66
2021/07/08 09:34:53;;;;;;;6.28;3.65;;;25.90;81.10;;;;;;5072487;28;20044;-66
2021/07/08 09:37:25;;;;;;;6.10;3.70;;;25.90;81.90;;;;;;5071012;28;20037;-66
2021/07/08 09:40:00;;;;;;;7.95;5.00;;;25.80;81.60;;;;;;5072315;28;20040;-66
2021/07/08 09:42:34;;;;;;;5.07;4.57;;;25.60;82.10;;;;;;5072596;28;20480;-66
2021/07/08 09:45:10;;;;;;;6.22;4.80;;;25.50;84.40;;;;;;5072065;28;20041;-66
2021/07/08 09:47:41;;;;;;;5.32;4.38;;;25.40;84.30;;;;;;5071718;28;20370;-66
2021/07/08 09:50:08;;;;;;;4.60;4.20;;;25.30;81.90;;;;;;5076585;28;20040;-66
2021/07/08 09:52:34;;;;;;;7.32;4.10;;;25.30;85.40;;;;;;5074602;28;20037;-67
2021/07/08 09:57:41;;;;;;;5.22;4.50;;;25.40;83.70;;;;;;5072093;28;20060;-67
2021/07/08 10:00:28;;;;;;;5.65;4.38;;;25.40;84.80;;;;;;5071830;28;20033;-66
2021/07/08 10:02:54;;;;;;;6.53;3.95;;;25.30;84.80;;;;;;5071958;28;20144;-66
2021/07/08 10:05:22;;;;;;;5.38;3.83;;;25.20;83.70;;;;;;5070640;28;20047;-66
2021/07/08 10:07:48;;;;;;;3.92;3.40;;;25.20;85.30;;;;;;5070565;28;20574;-66
2021/07/08 10:10:16;;;;;;;5.22;4.60;;;25.00;85.30;;;;;;5071781;28;20091;-66
2021/07/08 10:12:45;;;;;;;4.18;3.55;;;25.00;84.50;;;;;;5071719;28;20454;-66
2021/07/08 10:15:12;;;;;;;4.80;3.35;;;25.10;86.50;;;;;;5071669;28;20041;-66
2021/07/08 10:17:38;;;;;;;7.75;4.15;;;24.90;86.50;;;;;;5071862;28;20051;-66
2021/07/08 10:20:10;;;;;;;6.55;4.68;;;25.10;86.00;;;;;;5071729;28;20036;-66
2021/07/08 10:22:36;;;;;;;;;;;25.00;85.40;;;;;;5072227;28;20443;-66
2021/07/08 10:25:06;;;;;;;6.45;3.67;;;25.00;86.40;;;;;;5070355;28;19920;-68
2021/07/08 10:27:33;;;;;;;5.72;4.10;;;25.00;86.80;;;;;;5071467;28;20067;-66
2021/07/08 10:30:00;;;;;;;4.63;4.05;;;24.90;88.10;;;;;;5071494;28;20051;-66
2021/07/08 10:32:27;;;;;;;7.97;4.70;;;25.00;86.70;;;;;;5071488;28;20058;-66
2021/07/08 10:34:53;;;;;;;6.63;4.03;;;24.80;86.00;;;;;;5071376;28;20040;-66
2021/07/08 10:37:43;;;;;;;5.47;4.20;;;25.00;87.60;;;;;;5071406;28;20119;-66
2021/07/08 10:40:29;;;;;;;4.13;3.72;;;25.40;83.80;;;;;;5060314;28;20052;-66
2021/07/08 10:43:08;;;;;;;5.40;4.05;;;25.70;85.30;;;;;;5070065;28;20044;-67
2021/07/08 10:45:41;;;;;;;6.53;4.13;;;25.80;83.70;;;;;;5071215;28;20044;-67
2021/07/08 10:48:15;;;;;;;6.70;4.32;;;25.90;83.30;;;;;;5071360;28;20036;-66
2021/07/08 10:50:50;;;;;;;6.28;4.40;;;25.90;82.70;;;;;;5078769;28;20477;-66
2021/07/08 10:53:17;;;;;;;6.20;4.00;;;25.60;81.30;;;;;;5086980;28;20166;-66
2021/07/08 10:55:45;;;;;;;5.75;3.90;;;25.90;82.60;;;;;;5091049;28;20163;-67
2021/07/08 10:58:37;;;;;;;5.03;4.18;;;25.90;82.10;;;;;;5071750;28;20054;-66
2021/07/08 11:01:04;;;;;;;6.97;4.20;;;26.10;81.70;;;;;;5051048;28;20041;-66
2021/07/08 11:03:44;;;;;;;7.25;4.03;;;26.20;81.70;;;;;;5060491;28;20036;-66
2021/07/08 11:06:29;;;;;;;5.60;4.37;;;26.00;81.60;;;;;;5071080;28;20432;-66
2021/07/08 11:09:04;;;;;;;4.68;3.90;;;25.90;82.20;;;;;;5071333;28;20039;-67
2021/07/08 11:11:29;;;;;;;6.88;3.75;;;26.20;81.70;;;;;;5071014;28;20033;-66
2021/07/08 11:13:57;;;;;;;5.60;4.15;;;26.40;82.80;;;;;;5071069;28;20139;-67
2021/07/08 11:16:43;;;;;;;5.47;4.20;;;26.50;81.40;;;;;;5068200;28;20501;-67
2021/07/08 11:19:11;;;;;;;6.00;3.97;;;26.70;80.70;;;;;;5053024;28;20032;-66
2021/07/08 11:21:56;;;;;;;5.20;3.40;;;26.90;81.10;;;;;;5070695;28;20044;-66
2021/07/08 11:24:43;;;;;;;5.32;3.63;;;26.80;79.00;;;;;;5070845;28;20047;-66
2021/07/08 11:27:11;;;;;;;6.90;4.05;;;26.70;80.90;;;;;;5070723;28;20043;-66
2021/07/08 11:29:39;;;;;;;4.75;4.00;;;26.70;79.00;;;;;;5070886;28;20044;-67
2021/07/08 11:32:23;;;;;;;3.72;3.13;;;26.40;78.60;;;;;;5070719;28;20044;-66
2021/07/08 11:34:54;;;;;;;6.28;4.10;;;26.00;78.30;;;;;;5063382;28;20167;-66
2021/07/08 11:37:24;;;;;;;4.68;3.75;;;25.80;80.70;;;;;;5057824;28;20044;-66
2021/07/08 11:39:58;;;;;;;4.60;3.50;;;25.30;80.70;;;;;;5070248;28;20048;-66
2021/07/08 11:42:29;;;;;;;4.72;3.50;;;25.20;82.00;;;;;;5069791;28;20063;-66
2021/07/08 11:44:55;;;;;;;5.93;3.75;;;24.80;82.50;;;;;;5070158;28;20121;-66
2021/07/08 11:47:21;;;;;;;4.63;3.40;;;24.90;84.30;;;;;;5070146;28;20037;-66
2021/07/08 11:49:48;;;;;;;6.22;3.72;;;24.90;84.20;;;;;;5070350;28;20413;-66
2021/07/08 11:52:23;;;;;;;6.15;4.00;;;24.90;84.80;;;;;;5072954;28;20040;-66
2021/07/08 11:54:59;;;;;;;6.32;3.83;;;24.50;84.20;;;;;;5073329;28;20040;-67
2021/07/08 11:57:26;;;;;;;7.35;4.15;;;24.70;83.30;;;;;;5069993;28;20447;-66
2021/07/08 11:59:52;;;;;;;4.32;3.60;;;24.80;86.50;;;;;;5070405;28;20041;-66
2021/07/08 12:02:35;;;;;;;5.55;4.18;;;25.30;85.70;;;;;;5070363;28;20094;-66
2021/07/08 12:05:21;;;;;;;6.20;4.70;;;25.80;85.50;;;;;;5070575;28;20057;-66
2021/07/08 12:07:51;;;;;;;5.65;4.95;;;25.50;78.50;;;;;;5050899;28;20079;-66
2021/07/08 12:10:23;;;;;;;5.28;4.00;;;25.70;78.40;;;;;;5051490;28;20378;-66
2021/07/08 12:12:51;;;;;;;6.95;4.28;;;25.80;81.60;;;;;;5073606;28;20044;-66
2021/07/08 12:15:17;;;;;;;6.38;4.78;;;26.00;82.60;;;;;;5073922;28;20142;-66
2021/07/08 12:17:42;;;;;;;5.35;4.22;;;26.10;82.10;;;;;;5073871;28;20115;-66
2021/07/08 12:20:10;;;;;;;6.38;4.25;;;26.00;79.10;;;;;;5073929;28;20041;-67
2021/07/08 12:22:56;;;;;;;5.07;4.07;;;26.00;79.80;;;;;;5057265;28;20055;-67
2021/07/08 12:25:23;;;;;;;7.55;4.22;;;26.10;78.70;;;;;;5053990;28;20052;-66
2021/07/08 12:27:50;;;;;;;5.78;4.05;;;25.70;80.50;;;;;;5069264;28;20051;-67
2021/07/08 12:30:24;;;;;;;4.75;3.88;;;25.50;80.70;;;;;;5073957;28;20090;-66
2021/07/08 12:33:11;;;;;;;5.45;3.53;;;25.80;81.70;;;;;;5073767;28;20060;-67
2021/07/08 12:35:39;;;;;;;6.13;3.80;;;25.70;82.40;;;;;;5073625;28;20043;-66
2021/07/08 12:38:05;;;;;;;5.28;3.80;;;25.30;83.60;;;;;;5073670;28;20044;-67
2021/07/08 12:40:30;;;;;;;6.00;4.30;;;25.20;84.10;;;;;;5072142;28;20051;-66
2021/07/08 12:43:03;;;;;;;4.85;3.97;;;24.70;85.00;;;;;;5073489;28;20078;-66
2021/07/08 12:45:29;;;;;;;7.03;4.43;;;24.50;86.10;;;;;;5073437;28;20115;-66
2021/07/08 12:47:55;;;;;;;3.95;3.55;;;24.10;87.80;;;;;;5073480;28;20486;-67
2021/07/08 12:50:24;;;;;;;4.53;4.03;;;23.70;89.00;;;;;;5073398;28;20044;-67
2021/07/08 12:52:49;;;;;;;4.43;4.03;;;23.60;91.60;;;;;;5073866;28;20051;-66